Time;durP1;ratioP1;P1;durP2;ratioP2;P2;SDS_P1;SDS_P2;PMS_P1;PMS_P2;Temp;Humidity;BMP_temperature;BMP_pressure;BME280_temperature;BME280_humidity;BME280_pressure;Samples;Min_cycle;Max_cycle;Signal;HPM_P1;HPM_P2
2023/02/08 00:00:38;;;;;;;15.27;9.07;;;;;;;-6.99;100.00;103544.94;5004889;28;20312;-79
2023/02/08 00:03:06;;;;;;;18.90;8.97;;;;;;;-6.95;100.00;103539.34;5002729;28;20288;-80
2023/02/08 00:05:32;;;;;;;19.70;8.53;;;;;;;-7.01;100.00;103541.34;4997702;28;20289;-79
2023/02/08 00:07:59;;;;;;;16.67;8.83;;;;;;;-7.10;100.00;103542.25;5005676;28;20300;-79
2023/02/08 00:10:25;;;;;;;15.83;8.50;;;;;;;-7.22;100.00;103541.09;4995265;28;20301;-79
2023/02/08 00:12:52;;;;;;;18.13;8.53;;;;;;;-7.31;100.00;103540.19;4985948;28;20328;-79
2023/02/08 00:15:19;;;;;;;17.00;8.87;;;;;;;-7.33;100.00;103545.91;4998422;28;20303;-79
2023/02/08 00:17:46;;;;;;;18.63;8.77;;;;;;;-7.35;100.00;103543.19;5004741;28;20305;-79
2023/02/08 00:20:14;;;;;;;16.40;8.07;;;;;;;-7.34;100.00;103534.72;4978076;28;20653;-79
2023/02/08 00:22:40;;;;;;;18.47;8.90;;;;;;;-7.32;100.00;103542.56;4996004;28;20302;-79
2023/02/08 00:25:08;;;;;;;15.60;8.63;;;;;;;-7.32;100.00;103542.56;4983723;28;20322;-79
2023/02/08 00:27:35;;;;;;;20.23;9.50;;;;;;;-7.27;100.00;103546.50;5005532;28;20292;-79
2023/02/08 00:30:02;;;;;;;16.17;8.03;;;;;;;-7.27;100.00;103544.84;4987528;28;20944;-79
2023/02/08 00:32:29;;;;;;;20.20;9.23;;;;;;;-7.29;100.00;103551.50;5017804;28;20299;-78
2023/02/08 00:34:56;;;;;;;16.67;8.70;;;;;;;-7.29;100.00;103542.91;5022490;28;20626;-79
2023/02/08 00:37:23;;;;;;;17.87;9.30;;;;;;;-7.28;100.00;103549.84;4982453;28;20293;-79
2023/02/08 00:39:54;;;;;;;17.30;8.90;;;;;;;-7.29;100.00;103548.03;5004355;28;20299;-78
2023/02/08 00:42:25;;;;;;;20.90;9.27;;;;;;;-7.38;100.00;103543.81;4991236;28;20300;-79
2023/02/08 00:44:52;;;;;;;16.23;9.10;;;;;;;-7.42;100.00;103536.53;4988183;28;20350;-79
2023/02/08 00:47:23;;;;;;;19.50;8.57;;;;;;;-7.47;100.00;103540.34;5003437;28;20295;-79
2023/02/08 00:49:50;;;;;;;20.03;9.30;;;;;;;-7.48;100.00;103540.16;4987730;28;20710;-79
2023/02/08 00:52:21;;;;;;;16.80;8.67;;;;;;;-7.42;100.00;103539.13;4997045;28;20301;-79
2023/02/08 00:54:48;;;;;;;19.73;10.50;;;;;;;-7.29;100.00;103550.59;5008318;28;20300;-78
2023/02/08 00:57:15;;;;;;;19.07;9.00;;;;;;;-7.26;100.00;103554.38;5007125;28;20720;-78
2023/02/08 00:59:42;;;;;;;17.53;9.00;;;;;;;-7.21;100.00;103552.25;4991671;28;20335;-79
2023/02/08 01:02:09;;;;;;;20.67;9.63;;;;;;;-7.22;100.00;103561.63;4987566;28;20307;-79
2023/02/08 01:04:37;;;;;;;16.63;9.40;;;;;;;-7.29;100.00;103563.44;5019132;28;20288;-79
2023/02/08 01:07:04;;;;;;;19.40;9.97;;;;;;;-7.62;100.00;103559.38;5018624;28;20284;-79
2023/02/08 01:09:31;;;;;;;19.60;10.20;;;;;;;-7.72;100.00;103560.13;4991671;28;20625;-78
2023/02/08 01:11:58;;;;;;;20.90;9.57;;;;;;;-7.63;100.00;103549.84;4987616;28;20303;-79
2023/02/08 01:14:25;;;;;;;20.70;10.03;;;;;;;-7.62;100.00;103555.91;5004446;28;20504;-78
2023/02/08 01:16:52;;;;;;;19.30;9.60;;;;;;;-7.56;100.00;103547.16;5014150;28;20484;-79
2023/02/08 01:19:18;;;;;;;20.07;9.67;;;;;;;-7.55;100.00;103543.81;4991179;28;20308;-79
2023/02/08 01:21:47;;;;;;;18.93;9.53;;;;;;;-7.72;100.00;103543.81;4977671;28;20320;-78
2023/02/08 01:24:17;;;;;;;15.47;8.87;;;;;;;-7.80;100.00;103548.19;5046433;23;20891;-80
2023/02/08 01:26:44;;;;;;;18.00;9.73;;;;;;;-7.80;100.00;103531.88;4997028;28;20296;-81
2023/02/08 01:29:11;;;;;;;18.17;10.23;;;;;;;-7.83;100.00;103534.13;4975455;28;20293;-80
2023/02/08 01:31:39;;;;;;;18.80;9.97;;;;;;;-7.83;100.00;103539.25;4990760;28;20350;-80
2023/02/08 01:34:07;;;;;;;21.77;10.27;;;;;;;-7.78;100.00;103538.97;4987918;28;20301;-80
2023/02/08 01:36:35;;;;;;;20.57;9.73;;;;;;;-7.87;100.00;103548.31;4998358;28;20312;-81
2023/02/08 01:39:03;;;;;;;18.40;9.10;;;;;;;-7.93;100.00;103543.47;5007997;28;22094;-81
2023/02/08 01:41:36;;;;;;;21.10;9.63;;;;;;;-7.88;100.00;103541.38;5018491;28;20287;-80
2023/02/08 01:44:18;;;;;;;16.90;8.77;;;;;;;-7.84;100.00;103534.88;4987379;28;20366;-80
2023/02/08 01:46:47;;;;;;;19.70;9.10;;;;;;;-7.89;100.00;103538.66;5010097;28;20299;-80
2023/02/08 01:49:35;;;;;;;16.93;8.10;;;;;;;-7.97;100.00;103530.19;4994392;28;20300;-80
2023/02/08 01:52:09;;;;;;;17.83;9.10;;;;;;;-8.04;100.00;103535.47;4981688;28;20297;-80
2023/02/08 01:54:39;;;;;;;13.40;8.05;;;;;;;-8.02;100.00;103529.72;4996372;28;20285;-81
2023/02/08 01:57:06;;;;;;;16.80;8.23;;;;;;;-8.06;100.00;103522.50;4977407;28;20668;-80
2023/02/08 01:59:38;;;;;;;18.87;8.57;;;;;;;-8.05;100.00;103518.28;4970807;28;20292;-80
2023/02/08 02:02:07;;;;;;;16.40;8.23;;;;;;;-7.97;100.00;103515.72;4966370;28;20324;-80
2023/02/08 02:04:34;;;;;;;17.00;7.77;;;;;;;-7.99;100.00;103516.28;4969050;28;20300;-80
2023/02/08 02:07:02;;;;;;;14.73;8.07;;;;;;;-8.07;100.00;103514.63;5001775;28;20303;-80
2023/02/08 02:09:37;;;;;;;16.60;9.10;;;;;;;-7.95;100.00;103523.56;4964892;28;20300;-80
2023/02/08 02:12:05;;;;;;;17.43;8.57;;;;;;;-7.97;100.00;103519.94;4983508;28;20292;-80
2023/02/08 02:14:32;;;;;;;20.10;9.53;;;;;;;-8.07;100.00;103512.06;4968434;28;20320;-80
2023/02/08 02:17:00;;;;;;;20.43;9.07;;;;;;;-8.18;100.00;103518.69;4983514;28;20583;-79
2023/02/08 02:19:29;;;;;;;15.27;8.13;;;;;;;-8.20;100.00;103517.63;4985888;28;20288;-80
2023/02/08 02:22:10;;;;;;;17.73;8.97;;;;;;;-8.17;100.00;103506.75;5003033;28;20863;-79
2023/02/08 02:24:55;;;;;;;12.67;8.30;;;;;;;-8.15;100.00;103525.81;4985670;28;20301;-80
2023/02/08 02:27:48;;;;;;;16.40;8.40;;;;;;;-8.20;100.00;103517.63;5010737;28;20787;-80
2023/02/08 02:30:33;;;;;;;17.13;8.17;;;;;;;-8.25;100.00;103519.72;4977625;28;20300;-81
2023/02/08 02:33:17;;;;;;;21.13;9.40;;;;;;;-8.19;100.00;103519.44;4985158;28;20293;-80
2023/02/08 02:35:59;;;;;;;18.58;8.27;;;;;;;-8.24;100.00;103529.25;4979813;28;20301;-81
2023/02/08 02:38:48;;;;;;;19.07;8.47;;;;;;;-8.19;100.00;103529.69;4999969;28;20045;-79
2023/02/08 02:44:36;;;;;;;15.40;8.23;;;;;;;-8.06;100.00;103522.50;5001575;28;20304;-81
2023/02/08 02:47:15;;;;;;;17.90;8.87;;;;;;;-8.09;100.00;103524.72;4964002;28;20305;-80
2023/02/08 02:49:48;;;;;;;15.03;8.07;;;;;;;-8.26;100.00;103525.59;4992101;28;20326;-79
2023/02/08 02:52:32;;;;;;;17.40;8.47;;;;;;;-8.28;100.00;103531.34;4969535;28;20665;-81
2023/02/08 02:55:04;;;;;;;22.23;8.98;;;;;;;-8.35;100.00;103536.63;4978086;28;20778;-81
2023/02/08 02:57:32;;;;;;;15.73;9.00;;;;;;;-8.38;100.00;103528.63;4998397;28;20049;-80
2023/02/08 02:59:59;;;;;;;20.53;9.40;;;;;;;-8.36;100.00;103534.81;4977646;28;20351;-80
2023/02/08 03:02:26;;;;;;;19.03;9.90;;;;;;;-8.33;100.00;103535.06;4966907;28;20789;-81
2023/02/08 03:04:55;;;;;;;19.17;8.63;;;;;;;-8.35;100.00;103526.38;4964146;28;20300;-81
2023/02/08 03:07:33;;;;;;;19.47;10.30;;;;;;;-8.32;100.00;103534.34;4969095;28;20292;-79
2023/02/08 03:10:33;;;;;;;19.67;9.33;;;;;;;-8.31;100.00;103539.63;4979559;28;20297;-80
2023/02/08 03:13:19;;;;;;;15.50;9.30;;;;;;;-8.34;100.00;103551.22;4974552;28;20833;-80
2023/02/08 03:16:05;;;;;;;19.07;9.47;;;;;;;-8.38;100.00;103547.47;4986756;28;20296;-80
2023/02/08 03:18:59;;;;;;;14.97;8.03;;;;;;;-8.18;100.00;103546.00;5007286;28;20300;-80
2023/02/08 03:21:37;;;;;;;20.02;8.48;;;;;;;-8.44;100.00;103551.06;4989243;28;20332;-81
2023/02/08 03:24:54;;;;;;;16.90;8.80;;;;;;;-8.41;100.00;103546.25;5003762;28;20422;-80
2023/02/08 03:27:30;;;;;;;14.27;8.93;;;;;;;-8.38;100.00;103552.59;4947545;29;20299;-80
2023/02/08 03:30:14;;;;;;;16.33;8.83;;;;;;;-8.48;100.00;103552.44;4904372;29;20299;-81
2023/02/08 03:33:12;;;;;;;16.50;7.77;;;;;;;-8.55;100.00;103550.88;4974554;28;21077;-79
2023/02/08 03:35:44;;;;;;;18.17;9.20;;;;;;;-8.43;100.00;103555.44;4995721;28;20058;-79
2023/02/08 03:38:24;;;;;;;16.73;9.07;;;;;;;-8.53;100.00;103556.16;5007810;28;20284;-80
2023/02/08 03:40:52;;;;;;;17.67;9.23;;;;;;;-8.57;100.00;103557.53;4988404;28;20328;-80
2023/02/08 03:43:26;;;;;;;18.60;9.50;;;;;;;-8.48;100.00;103555.00;5007076;28;20282;-80
2023/02/08 03:46:04;;;;;;;16.55;10.02;;;;;;;-8.61;100.00;103557.94;4995069;28;20297;-80
2023/02/08 03:48:33;;;;;;;17.43;8.80;;;;;;;-8.61;100.00;103552.81;4983595;28;20054;-80
2023/02/08 03:51:01;;;;;;;15.13;8.90;;;;;;;-8.63;100.00;103545.72;4985650;28;20289;-80
2023/02/08 03:53:28;;;;;;;19.27;9.33;;;;;;;-8.61;100.00;103554.47;4986561;28;20297;-81
2023/02/08 03:55:58;;;;;;;18.80;9.50;;;;;;;-8.55;100.00;103550.88;4989885;28;20323;-80
2023/02/08 03:58:31;;;;;;;20.27;9.27;;;;;;;-8.62;100.00;103556.13;4986049;28;20297;-80
2023/02/08 04:01:02;;;;;;;17.13;9.70;;;;;;;-8.67;100.00;103547.03;4984022;28;20293;-80
2023/02/08 04:03:31;;;;;;;19.60;9.83;;;;;;;-8.66;100.00;103555.63;5005345;28;20299;-81
2023/02/08 04:05:58;;;;;;;18.53;9.13;;;;;;;-8.69;100.00;103558.81;4990218;28;20294;-80
2023/02/08 04:08:25;;;;;;;20.60;10.20;;;;;;;-8.66;100.00;103569.41;4961907;28;20301;-79
2023/02/08 04:10:51;;;;;;;19.03;9.50;;;;;;;-8.58;100.00;103563.38;4995036;28;20686;-81
2023/02/08 04:13:18;;;;;;;17.67;8.97;;;;;;;-8.68;100.00;103568.31;4986308;28;20778;-80
2023/02/08 04:15:44;;;;;;;18.60;9.30;;;;;;;-8.70;100.00;103562.13;4982595;28;20297;-80
2023/02/08 04:18:12;;;;;;;20.37;9.97;;;;;;;-8.75;100.00;103559.81;4983637;28;20441;-80
2023/02/08 04:20:38;;;;;;;18.37;10.13;;;;;;;-8.77;100.00;103558.75;4995984;28;20300;-80
2023/02/08 04:23:05;;;;;;;19.47;9.63;;;;;;;-8.70;100.00;103558.66;4987385;28;20328;-81
2023/02/08 04:25:32;;;;;;;19.63;9.90;;;;;;;-8.78;100.00;103552.72;4983151;28;20340;-80
2023/02/08 04:27:59;;;;;;;23.70;10.53;;;;;;;-8.77;100.00;103554.53;4995259;28;20307;-80
2023/02/08 04:30:25;;;;;;;21.90;11.57;;;;;;;-8.74;100.00;103557.44;4991035;28;20360;-79
2023/02/08 04:32:55;;;;;;;19.17;9.50;;;;;;;-8.81;100.00;103552.44;4992496;28;20312;-80
2023/02/08 04:35:22;;;;;;;25.20;10.30;;;;;;;-8.79;100.00;103543.25;4988081;28;20289;-80
2023/02/08 04:37:48;;;;;;;20.77;9.87;;;;;;;-8.79;100.00;103550.91;4993140;28;20293;-81
2023/02/08 04:40:15;;;;;;;20.73;10.20;;;;;;;-8.78;100.00;103551.81;4987556;28;20311;-79
2023/02/08 04:42:42;;;;;;;23.20;10.53;;;;;;;-8.84;100.00;103546.97;4995668;28;20285;-80
2023/02/08 04:45:09;;;;;;;21.90;10.80;;;;;;;-8.88;100.00;103552.53;4969320;28;20292;-81
2023/02/08 04:47:35;;;;;;;22.17;9.60;;;;;;;-8.85;100.00;103545.16;4972932;28;20747;-80
2023/02/08 04:50:03;;;;;;;18.50;9.43;;;;;;;-8.77;100.00;103536.59;4995711;28;20346;-79
2023/02/08 04:52:30;;;;;;;23.10;10.67;;;;;;;-8.66;100.00;103541.19;4990179;28;20293;-80
2023/02/08 04:54:56;;;;;;;19.20;10.17;;;;;;;-8.66;100.00;103536.06;4977264;28;20315;-80
2023/02/08 04:57:23;;;;;;;23.27;11.13;;;;;;;-8.66;100.00;103528.38;4992482;28;20293;-80
2023/02/08 04:59:50;;;;;;;21.93;10.83;;;;;;;-8.71;100.00;103531.22;4978077;28;20329;-80
2023/02/08 05:02:16;;;;;;;20.03;10.50;;;;;;;-8.68;100.00;103529.84;4998834;28;20621;-80
2023/02/08 05:04:43;;;;;;;20.83;10.00;;;;;;;-8.65;100.00;103527.63;4992981;28;20383;-80
2023/02/08 05:07:10;;;;;;;24.60;11.37;;;;;;;-8.66;100.00;103530.94;4977331;28;20311;-80
2023/02/08 05:09:36;;;;;;;22.17;11.17;;;;;;;-8.67;100.00;103533.31;4986569;28;20297;-80
2023/02/08 05:12:03;;;;;;;22.33;11.13;;;;;;;-8.67;100.00;103525.63;4972766;28;20341;-80
2023/02/08 05:14:30;;;;;;;25.70;12.03;;;;;;;-8.65;100.00;103517.38;4987132;28;20281;-81
2023/02/08 05:16:57;;;;;;;21.00;10.43;;;;;;;-8.64;100.00;103519.19;4998386;28;20297;-80
2023/02/08 05:19:23;;;;;;;21.47;11.93;;;;;;;-8.65;100.00;103526.72;5000600;28;20321;-80
2023/02/08 05:21:50;;;;;;;23.77;10.57;;;;;;;-8.52;100.00;103530.69;4986743;28;20793;-81
2023/02/08 05:24:16;;;;;;;22.43;12.00;;;;;;;-8.60;100.00;103531.56;4997037;28;20296;-81
2023/02/08 05:26:43;;;;;;;23.10;12.73;;;;;;;-8.55;100.00;103540.63;4975313;28;20281;-80
2023/02/08 05:29:10;;;;;;;23.77;11.13;;;;;;;-8.45;100.00;103542.47;5004913;28;20332;-80
2023/02/08 05:31:36;;;;;;;23.53;10.53;;;;;;;-8.45;100.00;103541.56;4980047;28;20364;-80
2023/02/08 05:34:03;;;;;;;24.27;11.13;;;;;;;-8.48;100.00;103555.00;5003334;28;20292;-81
2023/02/08 05:36:30;;;;;;;15.70;9.93;;;;;;;-8.56;100.00;103556.78;4983536;28;20389;-80
2023/02/08 05:38:56;;;;;;;19.80;10.50;;;;;;;-8.64;100.00;103552.50;4969940;28;20281;-80
2023/02/08 05:41:23;;;;;;;21.23;10.63;;;;;;;-8.57;100.00;103559.19;4997906;28;20297;-80
2023/02/08 05:43:50;;;;;;;26.10;11.57;;;;;;;-8.56;100.00;103569.59;4954584;28;20300;-80
2023/02/08 05:46:16;;;;;;;20.83;10.43;;;;;;;-8.65;100.00;103565.16;4967209;28;20755;-80
2023/02/08 05:48:43;;;;;;;21.80;11.27;;;;;;;-8.71;100.00;103568.00;5016837;28;20928;-79
2023/02/08 05:51:10;;;;;;;20.93;10.00;;;;;;;-8.74;100.00;103565.13;5003958;28;20327;-80
2023/02/08 05:53:37;;;;;;;22.57;10.60;;;;;;;-8.70;100.00;103568.91;4989889;28;20292;-80
2023/02/08 05:56:04;;;;;;;20.97;10.60;;;;;;;-8.70;100.00;103574.94;4990415;28;20292;-81
2023/02/08 05:58:35;;;;;;;22.87;12.53;;;;;;;-8.62;100.00;103570.59;4991997;28;20296;-80
2023/02/08 06:01:33;;;;;;;21.23;10.70;;;;;;;-8.64;100.00;103583.25;5022486;28;20705;-81
2023/02/08 06:03:59;;;;;;;20.87;11.57;;;;;;;-8.48;100.00;103562.69;4995098;28;20486;-79
2023/02/08 06:06:26;;;;;;;22.73;11.00;;;;;;;-8.58;100.00;103565.03;4970756;28;20300;-80
2023/02/08 06:08:53;;;;;;;23.03;10.33;;;;;;;-8.69;100.00;103568.16;4989872;28;20291;-81
2023/02/08 06:11:20;;;;;;;24.53;10.80;;;;;;;-8.66;100.00;103576.13;5001965;28;20296;-80
2023/02/08 06:13:47;;;;;;;26.77;12.60;;;;;;;-8.66;100.00;103581.25;4976406;28;20348;-80
2023/02/08 06:16:13;;;;;;;26.47;11.50;;;;;;;-8.72;100.00;103573.88;4954043;28;20293;-80
2023/02/08 06:18:40;;;;;;;22.47;11.80;;;;;;;-8.70;100.00;103579.16;4953117;28;20301;-80
2023/02/08 06:21:07;;;;;;;23.53;11.63;;;;;;;-8.70;100.00;103581.72;4983731;28;20336;-80
2023/02/08 06:23:34;;;;;;;23.27;11.40;;;;;;;-8.62;100.00;103578.28;4969430;28;20330;-80
2023/02/08 06:26:00;;;;;;;25.73;11.80;;;;;;;-8.64;100.00;103578.13;4996272;28;20300;-80
2023/02/08 06:28:27;;;;;;;23.47;11.03;;;;;;;-8.66;100.00;103586.41;4987239;28;20289;-79
2023/02/08 06:30:54;;;;;;;24.77;11.70;;;;;;;-8.69;100.00;103586.09;4974982;28;20681;-80
2023/02/08 06:33:21;;;;;;;25.03;11.60;;;;;;;-8.64;100.00;103584.91;4971368;28;20313;-80
2023/02/08 06:35:50;;;;;;;21.53;11.43;;;;;;;-8.72;100.00;103579.00;4985050;28;20307;-79
2023/02/08 06:38:17;;;;;;;21.83;11.60;;;;;;;-8.63;100.00;103581.59;4997563;28;20324;-80
2023/02/08 06:40:48;;;;;;;22.93;11.37;;;;;;;-8.65;100.00;103586.56;4980093;28;20655;-80
2023/02/08 06:43:15;;;;;;;26.27;11.90;;;;;;;-8.67;100.00;103585.50;4972833;28;20319;-80
2023/02/08 06:45:46;;;;;;;19.03;10.73;;;;;;;-8.72;100.00;103586.69;4990481;28;20374;-80
2023/02/08 06:48:13;;;;;;;22.97;12.40;;;;;;;-8.70;100.00;103589.41;4983193;28;20313;-81
2023/02/08 06:50:39;;;;;;;22.63;12.97;;;;;;;-8.67;100.00;103594.84;4987160;28;20800;-80
2023/02/08 06:53:07;;;;;;;27.93;11.63;;;;;;;-8.68;100.00;103593.94;4987923;28;20292;-80
2023/02/08 06:55:34;;;;;;;21.50;11.97;;;;;;;-8.65;100.00;103594.25;5003230;28;20285;-80
2023/02/08 06:58:01;;;;;;;21.23;11.93;;;;;;;-8.54;100.00;103593.72;5004269;28;20320;-80
2023/02/08 07:00:27;;;;;;;24.40;12.57;;;;;;;-8.55;100.00;103591.00;4985405;28;20286;-80
2023/02/08 07:02:54;;;;;;;25.27;11.70;;;;;;;-8.58;100.00;103588.09;5000791;28;20291;-79
2023/02/08 07:05:21;;;;;;;25.80;11.37;;;;;;;-8.56;100.00;103584.06;5003953;28;20539;-79
2023/02/08 07:07:48;;;;;;;25.70;12.60;;;;;;;-8.56;100.00;103600.34;4987931;28;20285;-80
2023/02/08 07:10:15;;;;;;;23.80;12.30;;;;;;;-8.36;100.00;103589.56;5010669;28;20298;-81
2023/02/08 07:12:42;;;;;;;28.27;13.07;;;;;;;-8.36;100.00;103604.94;4972154;28;20303;-80
2023/02/08 07:15:12;;;;;;;24.23;12.07;;;;;;;-8.31;100.00;103605.41;4980521;28;20285;-80
2023/02/08 07:17:39;;;;;;;22.33;12.13;;;;;;;-8.32;100.00;103607.06;4980703;28;20293;-80
2023/02/08 07:20:06;;;;;;;21.07;11.63;;;;;;;-8.32;100.00;103606.16;4982346;28;20352;-81
2023/02/08 07:22:33;;;;;;;21.80;12.03;;;;;;;-8.25;100.00;103614.59;4968039;28;20285;-81
2023/02/08 07:25:00;;;;;;;24.37;11.87;;;;;;;-8.30;100.00;103613.25;4999833;28;20327;-81
2023/02/08 07:27:27;;;;;;;21.87;11.30;;;;;;;-8.19;100.00;103613.44;5014304;23;20277;-80
2023/02/08 07:29:53;;;;;;;25.03;10.77;;;;;;;-8.23;100.00;103615.69;5000267;28;20292;-78
2023/02/08 07:32:20;;;;;;;25.77;11.77;;;;;;;-8.15;100.00;103618.13;4978325;28;20284;-79
2023/02/08 07:34:46;;;;;;;22.70;12.03;;;;;;;-8.02;100.00;103619.50;5003578;28;20343;-79
2023/02/08 07:37:13;;;;;;;21.50;11.60;;;;;;;-8.06;100.00;103626.75;4980409;28;20296;-80
2023/02/08 07:39:40;;;;;;;29.10;12.67;;;;;;;-7.83;100.00;103616.25;4999011;28;20301;-79
2023/02/08 07:42:07;;;;;;;28.70;12.93;;;;;;;-7.91;100.00;103614.56;5027990;28;20659;-78
2023/02/08 07:44:36;;;;;;;24.70;12.03;;;;;;;-7.88;100.00;103620.03;4979667;28;20288;-78
2023/02/08 07:47:04;;;;;;;28.53;13.20;;;;;;;-7.94;100.00;103620.28;4999018;28;20296;-78
2023/02/08 07:49:31;;;;;;;27.87;13.70;;;;;;;-7.94;100.00;103620.28;4983826;28;20327;-78
2023/02/08 07:51:59;;;;;;;37.87;17.83;;;;;;;-7.83;100.00;103614.56;4967893;28;20289;-78
2023/02/08 07:54:26;;;;;;;29.07;14.97;;;;;;;-7.77;100.00;103617.78;4990943;28;20662;-78
2023/02/08 07:56:52;;;;;;;25.90;13.63;;;;;;;-7.66;100.00;103614.59;4995937;28;20295;-77
2023/02/08 07:59:19;;;;;;;27.67;13.53;;;;;;;-7.62;100.00;103620.97;4986028;28;20734;-78
2023/02/08 08:01:46;;;;;;;22.70;12.20;;;;;;;-7.60;100.00;103616.00;4998311;28;20383;-78
2023/02/08 08:04:13;;;;;;;25.50;12.90;;;;;;;-7.54;100.00;103616.59;5014245;28;20289;-78
2023/02/08 08:06:41;;;;;;;26.73;12.73;;;;;;;-7.46;100.00;103614.06;4989138;28;20670;-78
2023/02/08 08:09:08;;;;;;;24.93;12.70;;;;;;;-7.42;100.00;103613.59;5011704;28;20281;-77
2023/02/08 08:11:34;;;;;;;29.53;14.90;;;;;;;-7.27;100.00;103616.78;4991604;28;20288;-77
2023/02/08 08:14:01;;;;;;;24.83;13.63;;;;;;;-7.16;100.00;103612.69;5016773;28;20309;-78
2023/02/08 08:16:28;;;;;;;29.43;13.60;;;;;;;-7.16;100.00;103612.69;5003182;28;20700;-79
2023/02/08 08:18:54;;;;;;;29.60;13.77;;;;;;;-7.14;100.00;103603.47;5014089;28;20308;-79
2023/02/08 08:21:21;;;;;;;30.43;15.10;;;;;;;-7.02;100.00;103608.91;5004196;28;20342;-77
2023/02/08 08:23:47;;;;;;;32.43;14.93;;;;;;;-6.92;100.00;103603.88;4998828;28;20866;-78
2023/02/08 08:26:16;;;;;;;29.90;16.67;;;;;;;-6.69;100.00;103616.41;5022410;28;20280;-78
2023/02/08 08:28:43;;;;;;;29.80;14.17;;;;;;;-6.61;100.00;103607.75;5006335;28;20700;-77
2023/02/08 08:31:15;;;;;;;29.40;15.53;;;;;;;-6.55;100.00;103605.78;4997794;28;20295;-78
2023/02/08 08:33:42;;;;;;;100.20;18.10;;;;;;;-6.43;100.00;103600.91;4997549;28;20874;-79
2023/02/08 08:36:09;;;;;;;31.10;14.90;;;;;;;-6.24;100.00;103599.28;4984647;28;20301;-78
2023/02/08 08:38:39;;;;;;;31.20;14.20;;;;;;;-6.21;100.00;103591.88;4990933;28;20312;-78
2023/02/08 08:41:13;;;;;;;32.40;17.30;;;;;;;-6.15;100.00;103596.69;4970733;28;20311;-78
2023/02/08 08:43:40;;;;;;;33.30;15.07;;;;;;;-6.04;100.00;103602.09;4992308;28;20288;-78
2023/02/08 08:46:07;;;;;;;34.37;17.03;;;;;;;-5.91;100.00;103598.06;5006769;28;20050;-78
2023/02/08 08:48:35;;;;;;;31.00;17.27;;;;;;;-5.70;100.00;103594.88;5011306;28;20092;-77
2023/02/08 08:51:01;;;;;;;36.63;18.97;;;;;;;-5.61;100.00;103597.41;5009990;28;20435;-78
2023/02/08 08:53:28;;;;;;;42.77;20.83;;;;;;;-5.33;100.00;103599.13;4985745;28;20037;-77
2023/02/08 08:55:55;;;;;;;38.17;18.23;;;;;;;-5.23;100.00;103600.88;5018070;28;20484;-78
2023/02/08 08:58:21;;;;;;;34.07;17.13;;;;;;;-5.13;100.00;103594.13;4991896;28;20297;-79
2023/02/08 09:00:48;;;;;;;34.70;18.53;;;;;;;-4.96;100.00;103602.44;5007676;28;20105;-79
2023/02/08 09:03:15;;;;;;;40.60;18.40;;;;;;;-4.77;100.00;103599.84;5006523;28;20052;-78
2023/02/08 09:05:42;;;;;;;40.13;18.63;;;;;;;-4.50;100.00;103601.38;5005356;28;20449;-78
2023/02/08 09:08:08;;;;;;;37.20;17.73;;;;;;;-4.44;100.00;103596.75;4989430;28;20037;-78
2023/02/08 09:10:35;;;;;;;39.00;19.67;;;;;;;-4.28;100.00;103597.31;5000427;28;20076;-78
2023/02/08 09:13:02;;;;;;;38.27;19.30;;;;;;;-4.03;100.00;103598.66;4983522;28;20048;-79
2023/02/08 09:15:29;;;;;;;37.60;16.80;;;;;;;-3.92;100.00;103602.13;4999653;28;20132;-80
2023/02/08 09:17:55;;;;;;;36.17;17.30;;;;;;;-3.87;100.00;103594.75;5000894;28;20063;-79
2023/02/08 09:20:22;;;;;;;36.30;17.63;;;;;;;-3.85;100.00;103595.81;4984242;28;20577;-80
2023/02/08 09:22:49;;;;;;;35.57;16.63;;;;;;;-3.59;100.00;103598.00;4987784;28;20041;-77
2023/02/08 09:25:16;;;;;;;50.17;18.70;;;;;;;-3.37;100.00;103593.84;4989464;28;20051;-78
2023/02/08 09:27:43;;;;;;;31.50;16.30;;;;;;;-3.24;100.00;103594.09;5039695;28;20038;-78
2023/02/08 09:30:10;;;;;;;32.23;16.90;;;;;;;-3.15;100.00;103591.34;4989025;28;20041;-79
2023/02/08 09:32:38;;;;;;;34.00;17.03;;;;;;;-3.11;100.00;103577.91;5005244;28;20115;-77
2023/02/08 09:35:06;;;;;;;38.03;17.47;;;;;;;-3.03;100.00;103583.66;5005665;28;20041;-78
2023/02/08 09:37:33;;;;;;;34.40;16.83;;;;;;;-2.89;100.00;103573.69;4988359;28;20046;-78
2023/02/08 09:40:00;;;;;;;34.73;17.43;;;;;;;-2.88;100.00;103559.06;4984861;28;20434;-78
2023/02/08 09:42:36;;;;;;;35.70;19.03;;;;;;;-2.72;100.00;103559.50;5001229;28;20041;-78
2023/02/08 09:45:18;;;;;;;32.00;17.67;;;;;;;-2.70;100.00;103565.69;5005634;28;20049;-78
2023/02/08 09:47:57;;;;;;;35.00;17.47;;;;;;;-2.40;100.00;103556.88;4991607;28;20038;-78
2023/02/08 09:50:43;;;;;;;33.43;17.53;;;;;;;-2.33;100.00;103559.16;5001415;28;20449;-78
2023/02/08 09:53:29;;;;;;;27.77;15.77;;;;;;;-2.08;100.00;103556.81;5007660;28;20072;-78
2023/02/08 09:55:58;;;;;;;31.67;17.17;;;;;;;-1.95;100.00;103560.31;4988189;28;20068;-78
2023/02/08 09:58:33;;;;;;;38.70;19.83;;;;;;;-1.79;100.00;103555.53;5015456;28;20108;-78
2023/02/08 10:01:00;;;;;;;36.30;16.83;;;;;;;-1.64;100.00;103566.16;5016622;28;20395;-78
2023/02/08 10:03:37;;;;;;;35.50;18.23;;;;;;;-1.52;100.00;103561.88;4991387;28;20498;-78
2023/02/08 10:06:09;;;;;;;34.23;18.63;;;;;;;-1.50;100.00;103565.50;4984321;28;20042;-78
2023/02/08 10:08:36;;;;;;;33.57;17.13;;;;;;;-1.38;100.00;103566.41;5015540;28;20038;-78
2023/02/08 10:11:24;;;;;;;37.57;18.10;;;;;;;-1.32;100.00;103563.38;5013853;28;20045;-78
2023/02/08 10:14:12;;;;;;;36.77;17.20;;;;;;;-1.08;97.61;103551.31;4984092;28;20048;-78
2023/02/08 10:17:03;;;;;;;42.80;19.50;;;;;;;-1.08;100.00;103562.59;4981586;28;20048;-79
2023/02/08 10:19:41;;;;;;;37.17;17.93;;;;;;;-0.81;94.05;103555.91;4991345;28;20060;-79
2023/02/08 10:22:22;;;;;;;34.80;19.50;;;;;;;-0.70;96.12;103554.09;4992158;28;20045;-78
2023/02/08 10:24:52;;;;;;;38.13;18.50;;;;;;;-0.71;95.41;103553.19;5006378;28;20042;-78
2023/02/08 10:27:24;;;;;;;32.97;17.67;;;;;;;-0.57;94.01;103539.50;5015191;28;20683;-78
2023/02/08 10:30:15;;;;;;;33.20;16.83;;;;;;;-0.36;91.59;103537.50;4993189;28;20038;-78
2023/02/08 10:33:01;;;;;;;30.00;17.30;;;;;;;-0.19;91.62;103519.59;5008825;28;20124;-79
2023/02/08 10:35:41;;;;;;;36.53;17.43;;;;;;;0.08;88.16;103533.56;4983046;28;20068;-80
2023/02/08 10:38:26;;;;;;;34.40;17.37;;;;;;;0.21;89.29;103525.81;4982320;28;20046;-79
2023/02/08 10:41:16;;;;;;;34.93;18.50;;;;;;;0.26;85.75;103520.13;5003006;28;20041;-79
2023/02/08 10:43:48;;;;;;;32.93;18.30;;;;;;;0.44;85.53;103523.06;4993711;28;20042;-79
2023/02/08 10:46:29;;;;;;;35.93;18.33;;;;;;;0.56;85.29;103517.75;4981610;28;20064;-79
2023/02/08 10:49:34;;;;;;;34.80;17.27;;;;;;;0.77;84.86;103518.28;4996759;28;20045;-80
2023/02/08 10:52:01;;;;;;;33.55;18.38;;;;;;;0.88;84.72;103513.75;4999504;28;20482;-80
2023/02/08 10:54:28;;;;;;;35.87;18.40;;;;;;;0.98;80.68;103510.94;4983938;28;20049;-81
2023/02/08 10:56:57;;;;;;;34.93;17.80;;;;;;;1.00;81.25;103502.41;5005040;28;20041;-81
2023/02/08 10:59:28;;;;;;;34.40;18.87;;;;;;;1.06;77.58;103499.31;4976368;28;20457;-80
2023/02/08 11:01:55;;;;;;;35.73;18.47;;;;;;;1.06;79.23;103494.09;4975640;28;20072;-79
2023/02/08 11:04:21;;;;;;;33.30;19.13;;;;;;;1.21;80.55;103488.97;4983057;28;20049;-79
2023/02/08 11:06:49;;;;;;;33.30;18.17;;;;;;;1.32;76.14;103495.75;4989336;28;20127;-79
2023/02/08 11:09:24;;;;;;;50.03;26.00;;;;;;;1.34;75.29;103482.00;4998604;28;20041;-80
2023/02/08 11:11:51;;;;;;;31.53;18.47;;;;;;;1.47;79.16;103482.78;4972642;28;20045;-79
2023/02/08 11:14:26;;;;;;;38.10;19.90;;;;;;;1.53;74.69;103471.03;4978862;28;20422;-80
2023/02/08 11:17:40;;;;;;;32.07;18.23;;;;;;;1.52;76.50;103477.06;4984604;28;20092;-80
2023/02/08 11:20:26;;;;;;;37.17;19.90;;;;;;;1.61;75.36;103476.72;4977480;28;20100;-79
2023/02/08 11:22:53;;;;;;;40.47;20.57;;;;;;;1.75;75.75;103477.53;4993836;28;20038;-79
2023/02/08 11:25:34;;;;;;;50.57;25.93;;;;;;;2.01;71.49;103485.22;4976871;28;20092;-79